createdAt,value
2022-11-24T00:00:00.345Z,19.52
2022-11-24T00:03:04.920Z,18.58
2022-11-24T00:06:11.074Z,20.13
2022-11-24T00:09:14.634Z,19.10
2022-11-24T00:12:17.924Z,18.77
2022-11-24T00:15:22.803Z,19.23
2022-11-24T00:18:26.081Z,19.55
2022-11-24T00:21:30.670Z,19.17
2022-11-24T00:24:34.322Z,18.58
2022-11-24T00:27:37.758Z,17.42
2022-11-24T00:30:42.577Z,18.33
2022-11-24T00:33:46.208Z,17.77
2022-11-24T00:36:49.718Z,16.45
2022-11-24T00:39:53.108Z,16.38
2022-11-24T00:42:56.467Z,16.58
2022-11-24T00:46:01.316Z,15.82
2022-11-24T00:49:04.840Z,15.02
2022-11-24T00:52:08.153Z,15.60
2022-11-24T00:55:11.548Z,15.80
2022-11-24T00:58:14.862Z,16.00
2022-11-24T01:01:21.807Z,15.57
2022-11-24T01:04:25.301Z,15.98
2022-11-24T01:07:28.631Z,15.45
2022-11-24T01:10:32.390Z,15.70
2022-11-24T01:13:36.372Z,14.75
2022-11-24T01:16:41.085Z,14.98
2022-11-24T01:19:47.171Z,14.98
2022-11-24T01:22:50.808Z,14.80
2022-11-24T01:25:54.082Z,14.35
2022-11-24T01:28:58.896Z,14.48
2022-11-24T01:32:03.582Z,14.18
2022-11-24T01:35:08.765Z,15.35
2022-11-24T01:38:12.111Z,14.48
2022-11-24T01:41:17.192Z,14.63
2022-11-24T01:44:25.407Z,13.43
2022-11-24T01:47:36.428Z,12.82
2022-11-24T01:50:41.749Z,12.30
2022-11-24T01:53:49.473Z,12.82
2022-11-24T01:56:58.127Z,13.00
2022-11-24T02:00:04.728Z,12.73
2022-11-24T02:03:25.012Z,13.88
2022-11-24T02:06:31.863Z,13.40
2022-11-24T02:09:41.888Z,13.75
2022-11-24T02:12:48.642Z,16.15
2022-11-24T02:15:54.547Z,17.55
2022-11-24T02:18:59.376Z,18.20
2022-11-24T02:22:04.727Z,18.77
2022-11-24T02:25:14.807Z,18.65
2022-11-24T02:28:22.167Z,18.60
2022-11-24T02:31:25.568Z,16.45
2022-11-24T02:34:28.945Z,15.30
2022-11-24T02:37:32.288Z,16.42
2022-11-24T02:40:35.733Z,15.45
2022-11-24T02:43:43.607Z,16.25
2022-11-24T02:46:46.883Z,15.30
2022-11-24T02:49:50.122Z,15.65
2022-11-24T02:52:53.525Z,15.38
2022-11-24T02:55:57.007Z,16.13
2022-11-24T02:59:01.738Z,16.92
2022-11-24T03:02:05.836Z,15.75
2022-11-24T03:05:09.914Z,15.30
2022-11-24T03:08:13.361Z,15.77
2022-11-24T03:11:16.676Z,14.70
2022-11-24T03:14:21.288Z,16.05
2022-11-24T03:17:24.590Z,16.30
2022-11-24T03:20:27.887Z,16.10
2022-11-24T03:23:31.174Z,15.75
2022-11-24T03:26:35.674Z,14.30
2022-11-24T03:29:40.351Z,15.85
2022-11-24T03:32:43.632Z,16.15
2022-11-24T03:35:46.925Z,15.65
2022-11-24T03:38:50.243Z,14.73
2022-11-24T03:41:53.721Z,15.98
2022-11-24T03:45:01.649Z,15.05
2022-11-24T03:48:15.194Z,14.43
2022-11-24T03:51:18.528Z,15.93
2022-11-24T03:54:22.078Z,16.45
2022-11-24T03:57:25.342Z,16.38
2022-11-24T04:00:30.697Z,16.23
2022-11-24T04:03:37.102Z,16.40
2022-11-24T04:06:40.563Z,17.20
2022-11-24T04:09:43.960Z,17.45
2022-11-24T04:12:47.218Z,17.45
2022-11-24T04:15:52.458Z,17.98
2022-11-24T04:18:55.772Z,17.90
2022-11-24T04:21:59.047Z,20.65
2022-11-24T04:25:02.415Z,19.92
2022-11-24T04:28:05.994Z,21.40
2022-11-24T04:31:10.743Z,21.10
2022-11-24T04:34:14.433Z,21.17
2022-11-24T04:37:17.768Z,20.25
2022-11-24T04:40:21.642Z,19.55
2022-11-24T04:43:24.907Z,19.65
2022-11-24T04:46:29.623Z,19.05
2022-11-24T04:49:32.914Z,19.63
2022-11-24T04:52:36.250Z,18.85
2022-11-24T04:55:40.137Z,19.40
2022-11-24T04:58:43.683Z,19.35
2022-11-24T05:01:48.814Z,18.08
2022-11-24T05:04:52.293Z,19.65
2022-11-24T05:07:55.777Z,18.55
2022-11-24T05:11:01.775Z,17.90
2022-11-24T05:14:04.957Z,19.08
2022-11-24T05:17:09.575Z,18.38
2022-11-24T05:20:13.061Z,19.25
2022-11-24T05:23:16.585Z,19.35
2022-11-24T05:26:19.879Z,18.55
2022-11-24T05:29:23.125Z,17.80
2022-11-24T05:32:27.845Z,19.17
2022-11-24T05:35:31.232Z,19.50
2022-11-24T05:38:35.265Z,18.88
2022-11-24T05:41:38.649Z,19.10
2022-11-24T05:44:41.862Z,19.15
2022-11-24T05:47:47.299Z,20.25
2022-11-24T05:51:03.183Z,20.15
2022-11-24T05:54:10.142Z,20.63
2022-11-24T05:57:14.570Z,20.95
2022-11-24T06:00:20.261Z,19.00
2022-11-24T06:03:26.166Z,19.23
2022-11-24T06:06:29.766Z,19.55
2022-11-24T06:09:33.013Z,19.42
2022-11-24T06:12:37.655Z,20.30
2022-11-24T06:15:41.464Z,20.70
2022-11-24T06:18:46.219Z,22.48
2022-11-24T06:21:49.551Z,23.60
2022-11-24T06:24:52.792Z,25.50
2022-11-24T06:27:56.321Z,25.35
2022-11-24T06:31:03.027Z,24.40
2022-11-24T06:34:10.879Z,23.42
2022-11-24T06:37:14.040Z,21.13
2022-11-24T06:40:18.155Z,19.35
2022-11-24T06:43:23.240Z,20.25
2022-11-24T06:46:26.723Z,18.95
2022-11-24T06:49:31.294Z,18.20
2022-11-24T06:52:34.890Z,16.58
2022-11-24T06:55:38.260Z,16.23
2022-11-24T06:58:44.563Z,15.43
2022-11-24T07:01:48.077Z,28.80
2022-11-24T07:04:52.759Z,15.73
2022-11-24T07:07:56.010Z,16.48
2022-11-24T07:11:05.704Z,16.55
2022-11-24T07:14:09.193Z,12.02
2022-11-24T07:17:12.576Z,14.77
2022-11-24T07:20:17.909Z,13.57
2022-11-24T07:23:21.164Z,14.75
2022-11-24T07:26:25.174Z,15.05
2022-11-24T07:29:28.404Z,14.40
2022-11-24T07:32:31.829Z,14.70
2022-11-24T07:35:36.444Z,15.98
2022-11-24T07:38:39.709Z,15.63
2022-11-24T07:41:43.047Z,15.82
2022-11-24T07:44:46.362Z,15.73
2022-11-24T07:47:49.637Z,14.77
2022-11-24T07:50:56.245Z,15.02
2022-11-24T07:53:59.759Z,14.52
2022-11-24T07:57:03.083Z,14.27
2022-11-24T08:00:07.579Z,14.65
2022-11-24T08:03:10.962Z,14.88
2022-11-24T08:06:24.446Z,14.32
2022-11-24T08:09:30.892Z,12.40
2022-11-24T08:12:34.405Z,12.38
2022-11-24T08:15:37.932Z,11.10
2022-11-24T08:18:41.645Z,11.45
2022-11-24T08:21:46.516Z,10.32
2022-11-24T08:24:51.458Z,10.55
2022-11-24T08:27:54.719Z,10.65
2022-11-24T08:31:03.795Z,9.88
2022-11-24T08:34:07.724Z,10.43
2022-11-24T08:37:12.645Z,9.55
2022-11-24T08:40:16.129Z,10.18
2022-11-24T08:43:19.516Z,10.82
2022-11-24T08:46:23.869Z,10.85
2022-11-24T08:49:27.372Z,9.75
2022-11-24T08:52:32.217Z,9.57
2022-11-24T08:55:35.380Z,10.00
2022-11-24T08:58:39.576Z,10.50
2022-11-24T09:01:43.062Z,9.60
2022-11-24T09:04:46.309Z,9.95
2022-11-24T09:07:51.273Z,9.52
2022-11-24T09:10:54.760Z,10.13
2022-11-24T09:13:58.147Z,10.02
2022-11-24T09:17:01.445Z,10.52
2022-11-24T09:20:05.728Z,9.98
2022-11-24T09:23:10.401Z,10.65
2022-11-24T09:26:15.571Z,11.32
2022-11-24T09:29:18.996Z,10.23
2022-11-24T09:32:22.205Z,10.95
2022-11-24T09:35:25.891Z,10.07
2022-11-24T09:38:30.792Z,10.07
2022-11-24T09:41:44.999Z,10.52
2022-11-24T09:45:04.210Z,10.48
2022-11-24T09:48:13.585Z,11.00
2022-11-24T09:51:17.579Z,12.10
2022-11-24T09:54:26.529Z,11.73
2022-11-24T09:57:37.556Z,10.98
2022-11-24T10:00:42.309Z,10.40
2022-11-24T10:03:48.614Z,10.95
2022-11-24T10:06:58.844Z,10.88
2022-11-24T10:10:10.930Z,10.65
2022-11-24T10:13:33.322Z,10.68
2022-11-24T10:16:51.357Z,11.20
2022-11-24T10:20:03.935Z,11.35
2022-11-24T10:23:19.893Z,11.68
2022-11-24T10:26:36.036Z,10.82
2022-11-24T10:29:42.187Z,10.23
2022-11-24T10:32:48.723Z,10.07
2022-11-24T10:35:57.002Z,10.05
2022-11-24T10:39:06.823Z,9.95
2022-11-24T10:42:19.232Z,10.85
2022-11-24T10:45:23.479Z,11.35
2022-11-24T10:48:30.640Z,10.95
2022-11-24T10:51:54.376Z,12.80
2022-11-24T10:54:59.543Z,14.23
2022-11-24T10:58:21.153Z,14.27
2022-11-24T11:01:35.970Z,16.17
2022-11-24T11:04:39.281Z,18.42
2022-11-24T11:07:42.649Z,20.50
2022-11-24T11:10:47.528Z,17.33
2022-11-24T11:14:01.573Z,17.80
2022-11-24T11:17:34.135Z,16.88
2022-11-24T11:20:37.510Z,23.63
2022-11-24T11:23:41.727Z,24.02
2022-11-24T11:26:45.209Z,16.30
2022-11-24T11:36:48.710Z,15.27
2022-11-24T11:39:53.291Z,14.30
2022-11-24T11:43:03.284Z,13.70
2022-11-24T11:49:16.077Z,16.65
2022-11-24T11:53:00.385Z,17.98
2022-11-24T11:56:21.994Z,17.70
2022-11-24T11:59:49.464Z,19.17
2022-11-24T12:03:17.625Z,19.95
2022-11-24T12:06:35.635Z,20.23
2022-11-24T12:09:50.471Z,18.85
2022-11-24T12:13:08.395Z,16.95
2022-11-24T12:16:27.928Z,16.52
2022-11-24T12:20:03.419Z,14.15
2022-11-24T12:23:19.785Z,18.05
2022-11-24T12:26:29.609Z,21.70
2022-11-24T12:29:51.456Z,33.55
2022-11-24T12:33:12.771Z,22.25
2022-11-24T12:36:41.127Z,20.13
2022-11-24T12:39:52.425Z,19.25
2022-11-24T12:43:05.370Z,18.63
2022-11-24T12:46:17.871Z,21.55
2022-11-24T12:49:27.983Z,19.83
2022-11-24T12:52:36.626Z,20.67
2022-11-24T12:55:44.597Z,19.38
2022-11-24T12:58:55.367Z,17.88
2022-11-24T13:02:06.657Z,17.67
2022-11-24T13:05:21.817Z,18.60
2022-11-24T13:08:27.686Z,21.45
2022-11-24T13:11:42.468Z,18.42
2022-11-24T13:14:49.281Z,15.50
2022-11-24T13:18:10.236Z,21.38
2022-11-24T13:21:36.207Z,26.13
2022-11-24T13:24:42.009Z,27.48
2022-11-24T13:27:48.204Z,30.45
2022-11-24T13:30:56.025Z,21.42
2022-11-24T13:33:59.557Z,20.15
2022-11-24T13:37:31.446Z,19.35
2022-11-24T13:41:06.290Z,19.35
2022-11-24T13:44:27.081Z,18.42
2022-11-24T13:47:45.049Z,16.73
2022-11-24T13:51:15.434Z,17.60
2022-11-24T13:54:18.982Z,17.77
2022-11-24T13:57:37.569Z,20.80
2022-11-24T14:01:17.232Z,20.77
2022-11-24T14:04:30.476Z,17.33
2022-11-24T14:07:35.289Z,24.02
2022-11-24T14:10:42.634Z,26.60
2022-11-24T14:13:47.677Z,27.98
2022-11-24T14:17:15.769Z,33.67
2022-11-24T14:20:24.814Z,36.78
2022-11-24T14:23:28.252Z,33.80
2022-11-24T14:26:35.392Z,33.85
2022-11-24T14:29:54.459Z,32.60
2022-11-24T14:32:59.191Z,35.92
2022-11-24T14:36:02.535Z,37.03
2022-11-24T14:39:06.104Z,42.08
2022-11-24T14:42:19.996Z,37.22
2022-11-24T14:45:24.665Z,37.05
2022-11-24T14:48:29.880Z,40.65
2022-11-24T14:51:35.799Z,42.67
2022-11-24T14:54:51.320Z,51.33
2022-11-24T14:57:54.632Z,56.05
2022-11-24T15:01:29.448Z,59.75
2022-11-24T15:08:04.075Z,47.78
2022-11-24T15:14:42.252Z,52.45
2022-11-24T15:17:49.528Z,46.40
2022-11-24T15:20:52.778Z,46.60
2022-11-24T15:24:07.898Z,52.55
2022-11-24T15:27:11.121Z,50.45
2022-11-24T15:30:14.903Z,50.00
2022-11-24T15:33:20.567Z,47.45
2022-11-24T15:36:23.931Z,45.13
2022-11-24T15:39:27.286Z,47.33
2022-11-24T15:42:30.581Z,53.15
2022-11-24T15:45:35.745Z,62.17
2022-11-24T15:48:40.643Z,56.38
2022-11-24T15:51:47.027Z,55.47
2022-11-24T15:54:53.664Z,53.15
2022-11-24T15:57:56.930Z,48.05
2022-11-24T16:01:00.492Z,51.88
2022-11-24T16:04:05.441Z,51.05
2022-11-24T16:07:12.879Z,49.90
2022-11-24T16:10:24.826Z,45.28
2022-11-24T16:13:28.190Z,40.35
2022-11-24T16:16:31.607Z,46.25
2022-11-24T16:19:41.868Z,45.05
2022-11-24T16:22:45.959Z,41.60
2022-11-24T16:25:49.167Z,39.83
2022-11-24T16:28:52.532Z,45.38
2022-11-24T16:31:55.915Z,50.58
2022-11-24T16:35:00.719Z,51.58
2022-11-24T16:38:07.941Z,50.72
2022-11-24T16:41:11.855Z,55.90
2022-11-24T16:44:15.232Z,55.90
2022-11-24T16:47:18.623Z,47.72
2022-11-24T16:50:23.431Z,59.90
2022-11-24T16:53:26.853Z,50.10
2022-11-24T16:56:30.877Z,48.20
2022-11-24T16:59:34.538Z,43.83
2022-11-24T17:02:37.890Z,44.72
2022-11-24T17:05:42.755Z,41.97
2022-11-24T17:08:47.387Z,40.25
2022-11-24T17:11:51.238Z,42.90
2022-11-24T17:15:24.651Z,40.47
2022-11-24T17:18:26.572Z,41.30
2022-11-24T17:21:32.190Z,44.15
2022-11-24T17:24:35.801Z,40.60
2022-11-24T17:27:39.254Z,42.25
2022-11-24T17:30:42.836Z,41.65
2022-11-24T17:33:46.256Z,49.17
2022-11-24T17:36:51.040Z,48.70
2022-11-24T17:40:20.351Z,47.83
2022-11-24T17:43:17.606Z,48.95
2022-11-24T17:46:21.927Z,57.15
2022-11-24T17:49:26.567Z,72.10
2022-11-24T17:52:32.534Z,60.22
2022-11-24T17:55:36.086Z,48.90
2022-11-24T17:58:42.843Z,43.55
2022-11-24T18:01:47.060Z,43.42
2022-11-24T18:04:50.383Z,43.95
2022-11-24T18:07:55.109Z,48.50
2022-11-24T18:11:04.561Z,49.30
2022-11-24T18:14:07.952Z,49.70
2022-11-24T18:17:11.237Z,48.38
2022-11-24T18:20:14.768Z,48.72
2022-11-24T18:23:19.385Z,50.28
2022-11-24T18:26:23.095Z,50.67
2022-11-24T18:29:26.364Z,54.83
2022-11-24T18:32:29.738Z,54.08
2022-11-24T18:35:33.005Z,54.15
2022-11-24T18:38:38.135Z,55.35
2022-11-24T18:41:41.379Z,54.60
2022-11-24T18:44:46.035Z,55.50
2022-11-24T18:47:50.863Z,56.40
2022-11-24T18:50:54.891Z,59.50
2022-11-24T18:53:59.971Z,61.85
2022-11-24T18:57:03.778Z,63.03
2022-11-24T19:00:08.960Z,59.45
2022-11-24T19:03:12.222Z,57.45
2022-11-24T19:06:17.813Z,58.95
2022-11-24T19:09:22.964Z,53.33
2022-11-24T19:12:26.272Z,52.28
2022-11-24T19:15:34.001Z,53.60
2022-11-24T19:18:37.293Z,54.20
2022-11-24T19:21:41.433Z,54.65
2022-11-24T19:24:46.716Z,55.33
2022-11-24T19:27:50.164Z,55.53
2022-11-24T19:30:53.580Z,61.05
2022-11-24T19:33:58.691Z,54.40
2022-11-24T19:37:02.103Z,53.38
2022-11-24T19:40:08.412Z,53.58
2022-11-24T19:43:11.883Z,50.97
2022-11-24T19:46:17.580Z,51.05
2022-11-24T19:49:20.828Z,55.72
2022-11-24T19:52:24.386Z,55.67
2022-11-24T19:55:29.219Z,55.00
2022-11-24T19:58:33.332Z,51.90
2022-11-24T20:01:40.090Z,49.67
2022-11-24T20:04:43.664Z,48.63
2022-11-24T20:07:47.152Z,51.00
2022-11-24T20:10:51.998Z,45.97
2022-11-24T20:13:56.066Z,46.78
2022-11-24T20:16:59.416Z,46.60
2022-11-24T20:20:02.850Z,46.65
2022-11-24T20:23:08.399Z,45.80
2022-11-24T20:26:15.048Z,46.03
2022-11-24T20:29:18.642Z,45.22
2022-11-24T20:32:22.030Z,45.45
2022-11-24T20:35:25.517Z,47.45
2022-11-24T20:38:31.632Z,47.55
2022-11-24T20:41:39.022Z,45.05
2022-11-24T20:44:42.468Z,44.33
2022-11-24T20:47:45.756Z,43.63
2022-11-24T20:50:51.499Z,42.13
2022-11-24T20:53:57.141Z,47.13
2022-11-24T20:57:01.915Z,43.25
2022-11-24T21:00:09.707Z,45.50
2022-11-24T21:03:17.988Z,45.47
2022-11-24T21:06:22.526Z,46.35
2022-11-24T21:09:27.530Z,46.03
2022-11-24T21:12:32.852Z,44.55
2022-11-24T21:15:36.780Z,46.03
2022-11-24T21:18:40.949Z,46.20
2022-11-24T21:21:48.060Z,45.95
2022-11-24T21:24:52.011Z,48.13
2022-11-24T21:27:57.181Z,49.45
2022-11-24T21:31:05.756Z,46.15
2022-11-24T21:34:09.854Z,47.65
2022-11-24T21:37:13.584Z,45.33
2022-11-24T21:40:17.615Z,47.45
2022-11-24T21:43:22.435Z,45.17
2022-11-24T21:46:40.532Z,43.65
2022-11-24T21:49:49.609Z,42.53
2022-11-24T21:52:53.757Z,43.38
2022-11-24T21:55:58.364Z,45.08
2022-11-24T21:59:03.043Z,46.22
2022-11-24T22:02:10.273Z,45.15
2022-11-24T22:05:16.277Z,48.35
2022-11-24T22:08:19.519Z,50.33
2022-11-24T22:11:24.746Z,48.17
2022-11-24T22:14:29.679Z,48.00
2022-11-24T22:17:32.886Z,48.00
2022-11-24T22:20:36.495Z,46.92
2022-11-24T22:23:39.890Z,47.28
2022-11-24T22:26:43.238Z,47.45
2022-11-24T22:29:51.372Z,48.65
2022-11-24T22:32:57.124Z,47.38
2022-11-24T22:36:01.131Z,47.35
2022-11-24T22:39:06.354Z,47.80
2022-11-24T22:42:09.562Z,48.83
2022-11-24T22:45:14.202Z,47.42
2022-11-24T22:48:17.374Z,47.22
2022-11-24T22:51:21.889Z,49.38
2022-11-24T22:54:25.249Z,47.28
2022-11-24T22:57:28.475Z,48.47
2022-11-24T23:00:33.193Z,49.33
2022-11-24T23:03:37.208Z,51.30
2022-11-24T23:06:40.628Z,48.40
2022-11-24T23:09:43.858Z,48.60
2022-11-24T23:12:47.144Z,48.08
2022-11-24T23:15:51.692Z,46.72
2022-11-24T23:18:54.938Z,47.50
2022-11-24T23:21:58.106Z,45.17
2022-11-24T23:25:01.475Z,46.88
2022-11-24T23:28:04.985Z,45.63
2022-11-24T23:31:11.589Z,45.78
2022-11-24T23:34:15.178Z,43.70
2022-11-24T23:37:18.560Z,44.33
2022-11-24T23:40:21.766Z,45.88
2022-11-24T23:43:25.047Z,44.35
2022-11-24T23:46:30.317Z,45.90
2022-11-24T23:49:33.518Z,45.65
2022-11-24T23:52:36.924Z,43.80
2022-11-24T23:55:40.277Z,46.53
2022-11-24T23:58:44.117Z,46.00
